sensor_id;sensor_type;location;lat;lon;timestamp;pressure;altitude;pressure_sealevel;temperature;humidity
84746;BME280;74975;51.922;6.480;2024-01-11T00:00:11;103145.38;;;-6.11;76.94
84746;BME280;74975;51.922;6.480;2024-01-11T00:02:40;103142.81;;;-6.13;77.14
84746;BME280;74975;51.922;6.480;2024-01-11T00:05:08;103147.25;;;-6.19;77.44
84746;BME280;74975;51.922;6.480;2024-01-11T00:07:38;103147.44;;;-6.27;78.46
84746;BME280;74975;51.922;6.480;2024-01-11T00:10:10;103149.25;;;-6.32;79.14
84746;BME280;74975;51.922;6.480;2024-01-11T00:12:36;103145.09;;;-6.36;78.61
84746;BME280;74975;51.922;6.480;2024-01-11T00:15:09;103149.44;;;-6.39;78.20
84746;BME280;74975;51.922;6.480;2024-01-11T00:17:35;103147.78;;;-6.42;78.46
84746;BME280;74975;51.922;6.480;2024-01-11T00:20:06;103148.81;;;-6.49;78.73
84746;BME280;74975;51.922;6.480;2024-01-11T00:22:36;103146.28;;;-6.50;78.65
84746;BME280;74975;51.922;6.480;2024-01-11T00:25:01;103152.16;;;-6.47;78.85
84746;BME280;74975;51.922;6.480;2024-01-11T00:27:33;103149.41;;;-6.38;78.38
84746;BME280;74975;51.922;6.480;2024-01-11T00:29:59;103149.47;;;-6.41;78.30
84746;BME280;74975;51.922;6.480;2024-01-11T00:32:26;103149.44;;;-6.39;78.03
84746;BME280;74975;51.922;6.480;2024-01-11T00:34:52;103158.06;;;-6.43;78.16
84746;BME280;74975;51.922;6.480;2024-01-11T00:37:20;103152.31;;;-6.53;77.83
84746;BME280;74975;51.922;6.480;2024-01-11T00:39:51;103157.38;;;-6.50;77.92
84746;BME280;74975;51.922;6.480;2024-01-11T00:42:18;103154.72;;;-6.45;77.78
84746;BME280;74975;51.922;6.480;2024-01-11T00:44:44;103150.34;;;-6.42;77.49
84746;BME280;74975;51.922;6.480;2024-01-11T00:47:17;103152.22;;;-6.48;77.37
84746;BME280;74975;51.922;6.480;2024-01-11T00:49:45;103154.78;;;-6.48;77.83
84746;BME280;74975;51.922;6.480;2024-01-11T00:52:14;103148.81;;;-6.49;77.78
84746;BME280;74975;51.922;6.480;2024-01-11T00:54:44;103156.63;;;-6.55;78.46
84746;BME280;74975;51.922;6.480;2024-01-11T00:57:14;103158.47;;;-6.61;78.69
84746;BME280;74975;51.922;6.480;2024-01-11T00:59:40;103161.03;;;-6.60;78.29
84746;BME280;74975;51.922;6.480;2024-01-11T01:02:09;103160.22;;;-6.63;78.65
84746;BME280;74975;51.922;6.480;2024-01-11T01:04:40;103160.34;;;-6.68;78.56
84746;BME280;74975;51.922;6.480;2024-01-11T01:07:05;103158.56;;;-6.66;78.52
84746;BME280;74975;51.922;6.480;2024-01-11T01:09:37;103177.41;;;-6.67;78.80
84746;BME280;74975;51.922;6.480;2024-01-11T01:12:03;103162.94;;;-6.71;78.87
84746;BME280;74975;51.922;6.480;2024-01-11T01:14:28;103161.94;;;-6.64;78.89
84746;BME280;74975;51.922;6.480;2024-01-11T01:16:58;103158.72;;;-6.72;78.06
84746;BME280;74975;51.922;6.480;2024-01-11T01:19:23;103162.03;;;-6.67;78.75
84746;BME280;74975;51.922;6.480;2024-01-11T01:21:50;103157.06;;;-6.75;79.00
84746;BME280;74975;51.922;6.480;2024-01-11T01:24:16;103147.84;;;-6.82;79.21
84746;BME280;74975;51.922;6.480;2024-01-11T01:26:44;103149.56;;;-6.82;78.99
84746;BME280;74975;51.922;6.480;2024-01-11T01:29:14;103152.81;;;-6.74;79.06
84746;BME280;74975;51.922;6.480;2024-01-11T01:31:43;103161.13;;;-6.66;78.66
84746;BME280;74975;51.922;6.480;2024-01-11T01:34:08;103165.41;;;-6.65;78.72
84746;BME280;74975;51.922;6.480;2024-01-11T01:36:37;103162.72;;;-6.60;78.18
84746;BME280;74975;51.922;6.480;2024-01-11T01:39:07;103160.88;;;-6.54;78.35
84746;BME280;74975;51.922;6.480;2024-01-11T01:41:33;103162.50;;;-6.50;78.35
84746;BME280;74975;51.922;6.480;2024-01-11T01:43:58;103163.41;;;-6.52;78.73
84746;BME280;74975;51.922;6.480;2024-01-11T01:46:25;103164.06;;;-6.43;77.68
84746;BME280;74975;51.922;6.480;2024-01-11T01:48:56;103164.84;;;-6.41;77.92
84746;BME280;74975;51.922;6.480;2024-01-11T01:51:23;103169.03;;;-6.37;77.82
84746;BME280;74975;51.922;6.480;2024-01-11T01:53:54;103172.38;;;-6.33;77.16
84746;BME280;74975;51.922;6.480;2024-01-11T01:56:23;103168.97;;;-6.34;77.54
84746;BME280;74975;51.922;6.480;2024-01-11T01:58:53;103166.25;;;-6.28;77.32
84746;BME280;74975;51.922;6.480;2024-01-11T02:01:22;103170.50;;;-6.27;77.50
84746;BME280;74975;51.922;6.480;2024-01-11T02:03:54;103168.91;;;-6.32;77.71
84746;BME280;74975;51.922;6.480;2024-01-11T02:06:22;103179.03;;;-6.26;77.50
84746;BME280;74975;51.922;6.480;2024-01-11T02:08:49;103176.47;;;-6.28;77.43
84746;BME280;74975;51.922;6.480;2024-01-11T02:11:17;103177.44;;;-6.32;78.06
84746;BME280;74975;51.922;6.480;2024-01-11T02:13:49;103185.03;;;-6.27;77.49
84746;BME280;74975;51.922;6.480;2024-01-11T02:16:14;103186.72;;;-6.28;77.96
84746;BME280;74975;51.922;6.480;2024-01-11T02:18:44;103190.25;;;-6.32;77.51
84746;BME280;74975;51.922;6.480;2024-01-11T02:21:11;103186.81;;;-6.31;78.31
84746;BME280;74975;51.922;6.480;2024-01-11T02:23:42;103188.53;;;-6.31;78.25
84746;BME280;74975;51.922;6.480;2024-01-11T02:26:11;103179.97;;;-6.30;77.51
84746;BME280;74975;51.922;6.480;2024-01-11T02:28:37;103184.09;;;-6.25;77.64
84746;BME280;74975;51.922;6.480;2024-01-11T02:31:02;103183.19;;;-6.21;77.33
84746;BME280;74975;51.922;6.480;2024-01-11T02:33:28;103184.09;;;-6.23;77.71
84746;BME280;74975;51.922;6.480;2024-01-11T02:35:57;103178.06;;;-6.22;77.59
84746;BME280;74975;51.922;6.480;2024-01-11T02:38:23;103173.78;;;-6.22;77.62
84746;BME280;74975;51.922;6.480;2024-01-11T02:40:49;103183.25;;;-6.24;77.32
84746;BME280;74975;51.922;6.480;2024-01-11T02:43:17;103181.75;;;-6.34;78.24
84746;BME280;74975;51.922;6.480;2024-01-11T02:45:43;103171.63;;;-6.38;78.23
84746;BME280;74975;51.922;6.480;2024-01-11T02:48:12;103169.97;;;-6.41;78.59
84746;BME280;74975;51.922;6.480;2024-01-11T02:50:37;103169.81;;;-6.35;78.90
84746;BME280;74975;51.922;6.480;2024-01-11T02:53:09;103164.75;;;-6.36;78.51
84746;BME280;74975;51.922;6.480;2024-01-11T02:55:38;103165.66;;;-6.39;78.83
84746;BME280;74975;51.922;6.480;2024-01-11T02:58:07;103171.66;;;-6.40;78.82
84746;BME280;74975;51.922;6.480;2024-01-11T03:00:32;103166.56;;;-6.41;79.01
84746;BME280;74975;51.922;6.480;2024-01-11T03:03:01;103158.13;;;-6.46;79.09
84746;BME280;74975;51.922;6.480;2024-01-11T03:05:30;103160.03;;;-6.54;79.05
84746;BME280;74975;51.922;6.480;2024-01-11T03:07:55;103156.16;;;-6.72;79.80
84746;BME280;74975;51.922;6.480;2024-01-11T03:10:25;103153.66;;;-6.75;80.59
84746;BME280;74975;51.922;6.480;2024-01-11T03:12:53;103169.06;;;-6.77;80.67
84746;BME280;74975;51.922;6.480;2024-01-11T03:15:25;103179.13;;;-6.69;80.58
84746;BME280;74975;51.922;6.480;2024-01-11T03:17:54;103186.53;;;-6.57;80.06
84746;BME280;74975;51.922;6.480;2024-01-11T03:20:24;103191.53;;;-6.51;79.97
84746;BME280;74975;51.922;6.480;2024-01-11T03:22:51;103189.72;;;-6.46;80.45
84746;BME280;74975;51.922;6.480;2024-01-11T03:25:18;103191.50;;;-6.49;79.82
84746;BME280;74975;51.922;6.480;2024-01-11T03:27:46;103187.22;;;-6.49;79.71
84746;BME280;74975;51.922;6.480;2024-01-11T03:30:14;103183.81;;;-6.48;80.26
84746;BME280;74975;51.922;6.480;2024-01-11T03:32:45;103180.34;;;-6.47;80.30
84746;BME280;74975;51.922;6.480;2024-01-11T03:35:10;103177.03;;;-6.50;79.84
84746;BME280;74975;51.922;6.480;2024-01-11T03:37:46;103176.22;;;-6.54;80.31
84746;BME280;74975;51.922;6.480;2024-01-11T03:40:11;103174.75;;;-6.64;80.07
84746;BME280;74975;51.922;6.480;2024-01-11T03:42:37;103177.34;;;-6.65;80.24
84746;BME280;74975;51.922;6.480;2024-01-11T03:45:04;103179.16;;;-6.71;80.78
84746;BME280;74975;51.922;6.480;2024-01-11T03:47:34;103172.53;;;-6.79;80.67
84746;BME280;74975;51.922;6.480;2024-01-11T03:50:03;103168.34;;;-6.83;81.33
84746;BME280;74975;51.922;6.480;2024-01-11T03:52:35;103183.75;;;-6.86;81.03
84746;BME280;74975;51.922;6.480;2024-01-11T03:55:04;103182.94;;;-6.88;80.99
84746;BME280;74975;51.922;6.480;2024-01-11T03:57:29;103178.78;;;-6.92;82.38
84746;BME280;74975;51.922;6.480;2024-01-11T03:59:58;103197.78;;;-7.04;82.52
84746;BME280;74975;51.922;6.480;2024-01-11T04:02:27;103207.97;;;-7.02;82.18
84746;BME280;74975;51.922;6.480;2024-01-11T04:05:06;103196.06;;;-7.03;82.73
84746;BME280;74975;51.922;6.480;2024-01-11T04:07:35;103202.09;;;-7.07;82.36
84746;BME280;74975;51.922;6.480;2024-01-11T04:10:04;103199.34;;;-6.98;82.15
84746;BME280;74975;51.922;6.480;2024-01-11T04:12:30;103195.22;;;-7.04;82.71
84746;BME280;74975;51.922;6.480;2024-01-11T04:14:57;103203.69;;;-7.02;82.99
84746;BME280;74975;51.922;6.480;2024-01-11T04:17:23;103213.22;;;-7.10;82.70
84746;BME280;74975;51.922;6.480;2024-01-11T04:19:48;103224.13;;;-6.99;82.95
84746;BME280;74975;51.922;6.480;2024-01-11T04:22:17;103223.09;;;-6.90;82.16
84746;BME280;74975;51.922;6.480;2024-01-11T04:24:47;103221.34;;;-6.88;82.46
84746;BME280;74975;51.922;6.480;2024-01-11T04:27:15;103223.03;;;-6.87;81.99
84746;BME280;74975;51.922;6.480;2024-01-11T04:29:46;103233.09;;;-6.78;81.79
84746;BME280;74975;51.922;6.480;2024-01-11T04:32:18;103238.25;;;-6.80;81.83
84746;BME280;74975;51.922;6.480;2024-01-11T04:34:50;103249.25;;;-6.76;82.03
84746;BME280;74975;51.922;6.480;2024-01-11T04:37:19;103236.50;;;-6.78;81.99
84746;BME280;74975;51.922;6.480;2024-01-11T04:39:44;103242.47;;;-6.79;81.98
84746;BME280;74975;51.922;6.480;2024-01-11T04:42:12;103237.31;;;-6.76;82.02
84746;BME280;74975;51.922;6.480;2024-01-11T04:44:38;103242.47;;;-6.77;82.42
84746;BME280;74975;51.922;6.480;2024-01-11T04:47:03;103230.50;;;-6.77;81.45
84746;BME280;74975;51.922;6.480;2024-01-11T04:49:33;103217.72;;;-6.78;81.79
84746;BME280;74975;51.922;6.480;2024-01-11T04:52:09;103223.91;;;-6.88;82.25
84746;BME280;74975;51.922;6.480;2024-01-11T04:54:41;103242.63;;;-6.85;82.90
84746;BME280;74975;51.922;6.480;2024-01-11T04:57:13;103241.03;;;-6.92;82.18
84746;BME280;74975;51.922;6.480;2024-01-11T04:59:38;103241.97;;;-6.96;82.88
84746;BME280;74975;51.922;6.480;2024-01-11T05:02:09;103244.50;;;-6.96;82.89
84746;BME280;74975;51.922;6.480;2024-01-11T05:04:38;103242.94;;;-7.01;82.83
84746;BME280;74975;51.922;6.480;2024-01-11T05:07:05;103242.13;;;-7.03;83.40
84746;BME280;74975;51.922;6.480;2024-01-11T05:09:34;103240.38;;;-7.01;83.55
84746;BME280;74975;51.922;6.480;2024-01-11T05:12:01;103249.63;;;-6.96;83.51
84746;BME280;74975;51.922;6.480;2024-01-11T05:14:26;103238.88;;;-7.11;82.92
84746;BME280;74975;51.922;6.480;2024-01-11T05:16:54;103243.13;;;-7.12;83.26
84746;BME280;74975;51.922;6.480;2024-01-11T05:19:22;103229.63;;;-7.20;83.76
84746;BME280;74975;51.922;6.480;2024-01-11T05:21:52;103231.50;;;-7.29;84.25
84746;BME280;74975;51.922;6.480;2024-01-11T05:24:21;103229.06;;;-7.35;84.60
84746;BME280;74975;51.922;6.480;2024-01-11T05:26:53;103220.63;;;-7.41;84.78
84746;BME280;74975;51.922;6.480;2024-01-11T05:29:21;103222.47;;;-7.49;85.09
84746;BME280;74975;51.922;6.480;2024-01-11T05:31:52;103212.25;;;-7.49;85.54
84746;BME280;74975;51.922;6.480;2024-01-11T05:34:23;103234.41;;;-7.48;84.75
84746;BME280;74975;51.922;6.480;2024-01-11T05:36:52;103241.78;;;-7.31;84.31
84746;BME280;74975;51.922;6.480;2024-01-11T05:39:21;103223.16;;;-7.39;84.17
84746;BME280;74975;51.922;6.480;2024-01-11T05:41:53;103214.06;;;-7.55;85.51
84746;BME280;74975;51.922;6.480;2024-01-11T05:44:23;103220.16;;;-7.64;85.60
84746;BME280;74975;51.922;6.480;2024-01-11T05:46:48;103215.09;;;-7.65;86.02
84746;BME280;74975;51.922;6.480;2024-01-11T05:49:16;103212.59;;;-7.67;86.59
84746;BME280;74975;51.922;6.480;2024-01-11T05:51:42;103206.56;;;-7.64;86.64
84746;BME280;74975;51.922;6.480;2024-01-11T05:54:20;103216.03;;;-7.69;87.16
84746;BME280;74975;51.922;6.480;2024-01-11T05:56:45;103223.69;;;-7.71;86.59
84746;BME280;74975;51.922;6.480;2024-01-11T05:59:17;103225.31;;;-7.65;86.96
84746;BME280;74975;51.922;6.480;2024-01-11T06:01:43;103224.50;;;-7.69;86.92
84746;BME280;74975;51.922;6.480;2024-01-11T06:04:13;103224.50;;;-7.69;87.02
84746;BME280;74975;51.922;6.480;2024-01-11T06:06:46;103227.19;;;-7.75;87.07
84746;BME280;74975;51.922;6.480;2024-01-11T06:09:18;103236.69;;;-7.81;87.28
84746;BME280;74975;51.922;6.480;2024-01-11T06:11:53;103250.94;;;-7.67;86.41
84746;BME280;74975;51.922;6.480;2024-01-11T06:14:26;103266.13;;;-7.59;86.90
84746;BME280;74975;51.922;6.480;2024-01-11T06:16:55;103270.22;;;-7.49;86.52
84746;BME280;74975;51.922;6.480;2024-01-11T06:19:28;103275.16;;;-7.39;85.99
84746;BME280;74975;51.922;6.480;2024-01-11T06:22:06;103279.28;;;-7.31;86.04
84746;BME280;74975;51.922;6.480;2024-01-11T06:24:35;103270.03;;;-7.39;86.91
84746;BME280;74975;51.922;6.480;2024-01-11T06:27:04;103266.63;;;-7.38;86.34
84746;BME280;74975;51.922;6.480;2024-01-11T06:29:32;103281.75;;;-7.25;86.28
84746;BME280;74975;51.922;6.480;2024-01-11T06:31:58;103278.94;;;-7.12;85.24
84746;BME280;74975;51.922;6.480;2024-01-11T06:34:29;103276.47;;;-7.16;85.74
84746;BME280;74975;51.922;6.480;2024-01-11T06:36:55;103279.84;;;-7.14;85.07
84746;BME280;74975;51.922;6.480;2024-01-11T06:39:28;103282.50;;;-7.19;85.54
84746;BME280;74975;51.922;6.480;2024-01-11T06:42:00;103280.91;;;-7.26;86.03
84746;BME280;74975;51.922;6.480;2024-01-11T06:44:33;103291.03;;;-7.20;86.24
84746;BME280;74975;51.922;6.480;2024-01-11T06:47:07;103294.25;;;-7.10;85.72
84746;BME280;74975;51.922;6.480;2024-01-11T06:49:45;103284.09;;;-7.13;85.46
84746;BME280;74975;51.922;6.480;2024-01-11T06:52:14;103291.78;;;-7.13;85.70
84746;BME280;74975;51.922;6.480;2024-01-11T06:54:47;103307.88;;;-7.07;85.24
84746;BME280;74975;51.922;6.480;2024-01-11T06:57:17;103301.91;;;-7.07;85.44
84746;BME280;74975;51.922;6.480;2024-01-11T06:59:46;103308.72;;;-7.06;85.36
84746;BME280;74975;51.922;6.480;2024-01-11T07:02:20;103306.09;;;-7.03;85.45
84746;BME280;74975;51.922;6.480;2024-01-11T07:04:52;103307.75;;;-7.01;85.26
84746;BME280;74975;51.922;6.480;2024-01-11T07:07:18;103301.72;;;-6.98;85.10
84746;BME280;74975;51.922;6.480;2024-01-11T07:09:44;103302.63;;;-6.99;84.92
84746;BME280;74975;51.922;6.480;2024-01-11T07:12:10;103295.75;;;-6.97;85.43
84746;BME280;74975;51.922;6.480;2024-01-11T07:14:38;103287.25;;;-7.01;85.62
84746;BME280;74975;51.922;6.480;2024-01-11T07:17:04;103276.16;;;-7.00;85.31
84746;BME280;74975;51.922;6.480;2024-01-11T07:19:34;103279.59;;;-7.01;85.60
84746;BME280;74975;51.922;6.480;2024-01-11T07:22:03;103272.16;;;-7.14;85.99
84746;BME280;74975;51.922;6.480;2024-01-11T07:24:31;103266.41;;;-7.25;85.79
84746;BME280;74975;51.922;6.480;2024-01-11T07:27:06;103275.19;;;-7.40;87.10
84746;BME280;74975;51.922;6.480;2024-01-11T07:29:35;103287.19;;;-7.44;86.88
84746;BME280;74975;51.922;6.480;2024-01-11T07:32:01;103290.53;;;-7.42;87.10
84746;BME280;74975;51.922;6.480;2024-01-11T07:34:30;103293.16;;;-7.45;87.00
84746;BME280;74975;51.922;6.480;2024-01-11T07:36:59;103293.91;;;-7.40;86.93
84746;BME280;74975;51.922;6.480;2024-01-11T07:39:31;103291.44;;;-7.43;87.19
84746;BME280;74975;51.922;6.480;2024-01-11T07:42:01;103291.44;;;-7.44;87.62
84746;BME280;74975;51.922;6.480;2024-01-11T07:44:28;103282.06;;;-7.44;88.32
84746;BME280;74975;51.922;6.480;2024-01-11T07:46:56;103274.31;;;-7.38;87.36
84746;BME280;74975;51.922;6.480;2024-01-11T07:49:22;103280.31;;;-7.40;87.20
84746;BME280;74975;51.922;6.480;2024-01-11T07:51:48;103279.41;;;-7.39;87.08
84746;BME280;74975;51.922;6.480;2024-01-11T07:54:15;103274.22;;;-7.33;87.22
84746;BME280;74975;51.922;6.480;2024-01-11T07:56:44;103274.91;;;-7.25;86.93
84746;BME280;74975;51.922;6.480;2024-01-11T07:59:13;103285.09;;;-7.22;86.83
84746;BME280;74975;51.922;6.480;2024-01-11T08:01:42;103303.66;;;-7.09;86.68
84746;BME280;74975;51.922;6.480;2024-01-11T08:04:11;103300.06;;;-6.99;86.31
84746;BME280;74975;51.922;6.480;2024-01-11T08:06:36;103301.84;;;-7.04;86.89
84746;BME280;74975;51.922;6.480;2024-01-11T08:09:06;103306.97;;;-7.04;86.93
84746;BME280;74975;51.922;6.480;2024-01-11T08:11:39;103306.09;;;-7.03;86.64
84746;BME280;74975;51.922;6.480;2024-01-11T08:14:10;103300.09;;;-7.02;86.84
84746;BME280;74975;51.922;6.480;2024-01-11T08:16:35;103294.97;;;-7.02;86.79
84746;BME280;74975;51.922;6.480;2024-01-11T08:19:00;103302.56;;;-6.96;87.20
84746;BME280;74975;51.922;6.480;2024-01-11T08:21:26;103316.00;;;-6.85;87.03
84746;BME280;74975;51.922;6.480;2024-01-11T08:23:51;103315.81;;;-6.75;85.98
84746;BME280;74975;51.922;6.480;2024-01-11T08:26:21;103329.13;;;-6.57;85.57
84746;BME280;74975;51.922;6.480;2024-01-11T08:28:49;103334.03;;;-6.47;85.53
84746;BME280;74975;51.922;6.480;2024-01-11T08:31:19;103340.59;;;-6.34;84.48
84746;BME280;74975;51.922;6.480;2024-01-11T08:33:44;103330.16;;;-6.23;84.53
84746;BME280;74975;51.922;6.480;2024-01-11T08:36:10;103338.56;;;-6.17;84.04
84746;BME280;74975;51.922;6.480;2024-01-11T08:38:36;103347.84;;;-6.13;83.66
84746;BME280;74975;51.922;6.480;2024-01-11T08:41:05;103341.81;;;-6.09;84.17
84746;BME280;74975;51.922;6.480;2024-01-11T08:43:30;103335.72;;;-6.05;84.13
84746;BME280;74975;51.922;6.480;2024-01-11T08:45:56;103332.16;;;-5.97;84.04
84746;BME280;74975;51.922;6.480;2024-01-11T08:48:21;103334.56;;;-5.90;83.00
84746;BME280;74975;51.922;6.480;2024-01-11T08:50:48;103332.66;;;-5.83;83.33
84746;BME280;74975;51.922;6.480;2024-01-11T08:53:17;103333.34;;;-5.75;82.29
84746;BME280;74975;51.922;6.480;2024-01-11T08:55:50;103331.47;;;-5.69;83.07
84746;BME280;74975;51.922;6.480;2024-01-11T08:58:16;103333.91;;;-5.63;82.39
84746;BME280;74975;51.922;6.480;2024-01-11T09:00:44;103337.97;;;-5.54;82.00
84746;BME280;74975;51.922;6.480;2024-01-11T09:03:14;103335.34;;;-5.51;82.76
84746;BME280;74975;51.922;6.480;2024-01-11T09:05:41;103335.97;;;-5.42;81.08
84746;BME280;74975;51.922;6.480;2024-01-11T09:08:10;103334.88;;;-5.31;82.32
84746;BME280;74975;51.922;6.480;2024-01-11T09:10:35;103330.47;;;-5.28;81.53
84746;BME280;74975;51.922;6.480;2024-01-11T09:13:04;103343.03;;;-5.16;81.58
84746;BME280;74975;51.922;6.480;2024-01-11T09:15:33;103347.22;;;-5.12;80.99
84746;BME280;74975;51.922;6.480;2024-01-11T09:18:02;103344.53;;;-5.07;80.66
84746;BME280;74975;51.922;6.480;2024-01-11T09:20:30;103346.91;;;-5.00;81.01
84746;BME280;74975;51.922;6.480;2024-01-11T09:23:03;103341.75;;;-5.00;79.59
84746;BME280;74975;51.922;6.480;2024-01-11T09:25:37;103349.88;;;-4.83;80.78
84746;BME280;74975;51.922;6.480;2024-01-11T09:28:03;103363.38;;;-4.75;80.03
84746;BME280;74975;51.922;6.480;2024-01-11T09:30:31;103368.25;;;-4.65;79.91
84746;BME280;74975;51.922;6.480;2024-01-11T09:32:56;103363.00;;;-4.61;79.56
84746;BME280;74975;51.922;6.480;2024-01-11T09:35:26;103374.13;;;-4.60;79.29
84746;BME280;74975;51.922;6.480;2024-01-11T09:37:51;103375.78;;;-4.58;78.69
84746;BME280;74975;51.922;6.480;2024-01-11T09:40:18;103379.84;;;-4.51;79.12
84746;BME280;74975;51.922;6.480;2024-01-11T09:42:44;103387.25;;;-4.39;81.07
84746;BME280;74975;51.922;6.480;2024-01-11T09:45:18;103392.31;;;-4.36;78.53
84746;BME280;74975;51.922;6.480;2024-01-11T09:47:51;103385.19;;;-4.28;79.14
84746;BME280;74975;51.922;6.480;2024-01-11T09:50:21;103388.28;;;-4.15;78.12
84746;BME280;74975;51.922;6.480;2024-01-11T09:52:49;103391.44;;;-4.06;77.82
84746;BME280;74975;51.922;6.480;2024-01-11T09:55:18;103400.34;;;-3.88;78.61
84746;BME280;74975;51.922;6.480;2024-01-11T09:57:53;103398.00;;;-3.66;77.84
84746;BME280;74975;51.922;6.480;2024-01-11T10:00:24;103394.88;;;-3.48;76.64
84746;BME280;74975;51.922;6.480;2024-01-11T10:02:55;103399.19;;;-3.22;74.73
84746;BME280;74975;51.922;6.480;2024-01-11T10:05:30;103393.31;;;-3.00;73.52
84746;BME280;74975;51.922;6.480;2024-01-11T10:08:02;103389.38;;;-2.85;71.78
84746;BME280;74975;51.922;6.480;2024-01-11T10:10:29;103414.41;;;-2.64;73.42
84746;BME280;74975;51.922;6.480;2024-01-11T10:13:05;103406.16;;;-2.49;70.94
84746;BME280;74975;51.922;6.480;2024-01-11T10:15:34;103406.75;;;-2.18;71.28
84746;BME280;74975;51.922;6.480;2024-01-11T10:18:03;103405.47;;;-2.06;70.10
84746;BME280;74975;51.922;6.480;2024-01-11T10:20:37;103406.53;;;-1.88;69.20
84746;BME280;74975;51.922;6.480;2024-01-11T10:23:06;103389.50;;;-1.92;68.82
84746;BME280;74975;51.922;6.480;2024-01-11T10:25:37;103374.22;;;-1.75;68.96
84746;BME280;74975;51.922;6.480;2024-01-11T10:28:13;103374.34;;;-1.35;68.86
84746;BME280;74975;51.922;6.480;2024-01-11T10:30:39;103366.94;;;-1.44;67.42
84746;BME280;74975;51.922;6.480;2024-01-11T10:33:07;103374.09;;;-1.51;66.65
84746;BME280;74975;51.922;6.480;2024-01-11T10:35:35;103363.81;;;-1.30;67.31
84746;BME280;74975;51.922;6.480;2024-01-11T10:38:03;103366.81;;;-0.99;65.71
84746;BME280;74975;51.922;6.480;2024-01-11T10:40:47;103377.59;;;-0.90;64.71
84746;BME280;74975;51.922;6.480;2024-01-11T10:43:25;103374.09;;;-1.29;66.65
84746;BME280;74975;51.922;6.480;2024-01-11T10:45:59;103390.16;;;-1.01;66.28
84746;BME280;74975;51.922;6.480;2024-01-11T10:48:41;103387.66;;;-1.02;67.24
84746;BME280;74975;51.922;6.480;2024-01-11T10:51:16;103388.69;;;-1.28;68.14
84746;BME280;74975;51.922;6.480;2024-01-11T10:54:05;103400.28;;;-1.38;68.66
84746;BME280;74975;51.922;6.480;2024-01-11T10:56:37;103402.44;;;-1.27;69.44
84746;BME280;74975;51.922;6.480;2024-01-11T10:59:05;103403.38;;;-1.73;72.00
84746;BME280;74975;51.922;6.480;2024-01-11T11:01:42;103411.66;;;-1.65;71.71
84746;BME280;74975;51.922;6.480;2024-01-11T11:04:19;103403.88;;;-1.42;70.75
84746;BME280;74975;51.922;6.480;2024-01-11T11:06:55;103411.84;;;-1.48;72.81
84746;BME280;74975;51.922;6.480;2024-01-11T11:09:27;103422.19;;;-1.48;73.90
84746;BME280;74975;51.922;6.480;2024-01-11T11:12:07;103416.44;;;-1.55;74.20
84746;BME280;74975;51.922;6.480;2024-01-11T11:14:36;103413.16;;;-1.37;73.50
84746;BME280;74975;51.922;6.480;2024-01-11T11:17:16;103417.03;;;-1.48;74.38
84746;BME280;74975;51.922;6.480;2024-01-11T11:19:46;103419.38;;;-1.42;74.01
84746;BME280;74975;51.922;6.480;2024-01-11T11:22:17;103428.28;;;-1.49;74.33
84746;BME280;74975;51.922;6.480;2024-01-11T11:25:02;103426.16;;;-1.84;76.22
84746;BME280;74975;51.922;6.480;2024-01-11T11:27:34;103404.59;;;-1.60;77.27
84746;BME280;74975;51.922;6.480;2024-01-11T11:30:06;103395.22;;;-1.41;76.44
84746;BME280;74975;51.922;6.480;2024-01-11T11:32:46;103384.59;;;-1.34;76.45
84746;BME280;74975;51.922;6.480;2024-01-11T11:35:22;103384.53;;;-1.32;76.72
84746;BME280;74975;51.922;6.480;2024-01-11T11:37:57;103386.31;;;-1.56;77.62
84746;BME280;74975;51.922;6.480;2024-01-11T11:40:38;103394.22;;;-1.59;79.19
84746;BME280;74975;51.922;6.480;2024-01-11T11:43:21;103403.97;;;-1.88;79.38
84746;BME280;74975;51.922;6.480;2024-01-11T11:45:56;103395.75;;;-2.23;81.70
84746;BME280;74975;51.922;6.480;2024-01-11T11:51:16;103396.34;;;-2.15;82.44
84746;BME280;74975;51.922;6.480;2024-01-11T11:53:56;103395.16;;;-2.29;83.80
84746;BME280;74975;51.922;6.480;2024-01-11T11:56:30;103386.31;;;-2.47;85.01
84746;BME280;74975;51.922;6.480;2024-01-11T11:59:07;103395.16;;;-2.54;85.52
84746;BME280;74975;51.922;6.480;2024-01-11T12:01:37;103395.94;;;-2.52;86.61
84746;BME280;74975;51.922;6.480;2024-01-11T12:04:13;103391.66;;;-2.51;87.90
84746;BME280;74975;51.922;6.480;2024-01-11T12:06:45;103389.59;;;-2.42;87.46
84746;BME280;74975;51.922;6.480;2024-01-11T12:09:19;103394.91;;;-2.46;88.11
84746;BME280;74975;51.922;6.480;2024-01-11T12:12:01;103398.88;;;-2.38;88.69
84746;BME280;74975;51.922;6.480;2024-01-11T12:14:28;103396.94;;;-2.31;88.70
84746;BME280;74975;51.922;6.480;2024-01-11T12:16:57;103381.31;;;-2.27;88.95
84746;BME280;74975;51.922;6.480;2024-01-11T12:19:32;103387.81;;;-2.17;88.99
84746;BME280;74975;51.922;6.480;2024-01-11T12:21:58;103400.75;;;-2.18;89.72
84746;BME280;74975;51.922;6.480;2024-01-11T12:24:29;103394.31;;;-2.07;88.84
84746;BME280;74975;51.922;6.480;2024-01-11T12:27:10;103402.22;;;-2.11;89.62
84746;BME280;74975;51.922;6.480;2024-01-11T12:29:42;103396.69;;;-2.01;90.22
84746;BME280;74975;51.922;6.480;2024-01-11T12:32:20;103396.38;;;-1.93;89.58
84746;BME280;74975;51.922;6.480;2024-01-11T12:35:03;103396.94;;;-1.85;89.57
84746;BME280;74975;51.922;6.480;2024-01-11T12:38:01;103387.13;;;-1.75;90.44
84746;BME280;74975;51.922;6.480;2024-01-11T12:40:36;103389.28;;;-1.65;89.85
84746;BME280;74975;51.922;6.480;2024-01-11T12:43:18;103380.56;;;-1.62;89.98
84746;BME280;74975;51.922;6.480;2024-01-11T12:45:54;103371.75;;;-1.57;89.92
84746;BME280;74975;51.922;6.480;2024-01-11T12:48:21;103368.91;;;-1.51;89.94
84746;BME280;74975;51.922;6.480;2024-01-11T12:50:51;103362.78;;;-1.48;90.06
84746;BME280;74975;51.922;6.480;2024-01-11T12:53:25;103365.25;;;-1.45;89.75
84746;BME280;74975;51.922;6.480;2024-01-11T12:56:10;103358.91;;;-1.37;90.19
84746;BME280;74975;51.922;6.480;2024-01-11T12:58:39;103372.78;;;-1.39;89.65
84746;BME280;74975;51.922;6.480;2024-01-11T13:01:09;103354.50;;;-1.35;89.89
84746;BME280;74975;51.922;6.480;2024-01-11T13:03:48;103347.94;;;-1.21;89.48
84746;BME280;74975;51.922;6.480;2024-01-11T13:06:15;103342.22;;;-1.08;89.33